Time;durP1;ratioP1;P1;durP2;ratioP2;P2;SDS_P1;SDS_P2;PMS_P1;PMS_P2;Temp;Humidity;BMP_temperature;BMP_pressure;BME280_temperature;BME280_humidity;BME280_pressure;Samples;Min_cycle;Max_cycle;Signal;HPM_P1;HPM_P2
2022/06/22 17:56:29;;;;;;;3.27;1.50;;;;;;;16.17;77.55;146229.03;1830610;78;22999;-57
2022/06/22 17:59:04;;;;;;;3.60;1.22;;;;;;;16.05;77.31;146200.05;1795842;80;21047;-59
2022/06/22 18:01:37;;;;;;;4.67;1.27;;;;;;;15.95;77.53;146176.16;1801278;80;21033;-57
2022/06/22 18:04:51;;;;;;;2.42;1.40;;;;;;;15.82;77.87;146144.66;1801051;80;21021;-59
2022/06/22 18:07:25;;;;;;;3.75;1.27;;;;;;;15.71;78.35;146116.94;1801740;80;21525;-57
2022/06/22 18:10:00;;;;;;;2.45;1.25;;;;;;;15.58;78.76;146084.16;1828006;78;21027;-58
2022/06/22 18:12:32;;;;;;;4.10;1.60;;;;;;;15.47;79.08;146057.72;1834040;78;21023;-60
2022/06/22 18:15:25;;;;;;;2.92;1.57;;;;;;;15.39;79.29;146037.55;1834187;78;21007;-57
2022/06/22 18:17:57;;;;;;;3.25;1.47;;;;;;;15.32;79.54;146021.20;1863464;76;21458;-58
2022/06/22 18:20:32;;;;;;;3.02;1.50;;;;;;;15.25;80.24;146003.58;1804746;77;21002;-58
2022/06/22 18:23:07;;;;;;;4.08;1.47;;;;;;;15.20;80.90;145990.98;1802533;80;21526;-57
2022/06/22 18:25:42;;;;;;;5.92;1.60;;;;;;;15.14;81.32;145975.91;1799697;78;20976;-57
2022/06/22 18:28:23;;;;;;;2.77;1.60;;;;;;;15.08;81.48;145960.77;1816491;78;21066;-57
2022/06/22 18:31:02;;;;;;;2.12;1.27;;;;;;;15.04;81.70;145951.98;1827808;78;21023;-58
2022/06/22 18:34:24;;;;;;;2.85;1.42;;;;;;;14.97;82.43;145935.59;1830222;78;21064;-58
2022/06/22 18:37:20;;;;;;;4.17;1.80;;;;;;;14.89;82.75;145914.22;1829986;78;21474;-58
2022/06/22 18:43:22;;;;;;;5.05;1.65;;;;;;;14.74;84.59;145878.97;1818444;78;21056;-59
2022/06/22 18:46:00;;;;;;;4.85;1.80;;;;;;;14.67;85.48;145860.09;1829915;78;21079;-58
2022/06/22 18:48:50;;;;;;;5.10;1.50;;;;;;;14.59;86.43;145841.22;1829931;78;20981;-59
2022/06/22 18:51:28;;;;;;;4.85;1.80;;;;;;;14.54;87.20;145829.89;1829814;78;21158;-58
2022/06/22 18:54:20;;;;;;;5.25;1.70;;;;;;;14.49;87.75;145817.27;1829837;78;21512;-57
2022/06/22 18:56:55;;;;;;;2.90;1.62;;;;;;;14.49;88.18;145817.27;1824057;78;21025;-57
2022/06/22 18:59:27;;;;;;;3.20;1.98;;;;;;;14.50;88.79;145818.52;1823029;78;21080;-58
2022/06/22 19:02:04;;;;;;;2.90;1.87;;;;;;;14.48;89.41;145813.52;1824140;79;21414;-58
2022/06/22 19:04:32;;;;;;;3.42;1.70;;;;;;;14.43;90.11;145800.94;1820942;78;21473;-57
2022/06/22 19:07:14;;;;;;;3.75;1.80;;;;;;;14.39;91.16;145792.09;1824145;78;21035;-58
2022/06/22 19:10:03;;;;;;;3.62;1.67;;;;;;;14.37;91.71;145785.81;1812044;78;21552;-57
2022/06/22 19:12:43;;;;;;;3.98;1.72;;;;;;;14.34;92.50;145779.53;1808698;78;20990;-59
2022/06/22 19:15:36;;;;;;;3.35;1.90;;;;;;;14.34;93.13;145779.53;1823884;79;21044;-58
2022/06/22 19:18:38;;;;;;;3.77;2.00;;;;;;;14.35;94.07;145782.06;1799937;79;21012;-57
2022/06/22 19:21:17;;;;;;;;;;;;;;;14.33;94.89;145777.03;1774521;78;21544;-58
2022/06/22 19:24:18;;;;;;;3.65;2.40;;;;;;;14.28;95.88;145764.45;1790269;80;20104;-57
2022/06/22 19:26:53;;;;;;;4.97;1.80;;;;;;;14.26;96.58;145760.66;1763983;81;21511;-57
2022/06/22 19:29:44;;;;;;;5.05;2.22;;;;;;;14.26;97.33;145759.41;1834198;78;20973;-58
2022/06/22 19:32:25;;;;;;;4.95;1.92;;;;;;;14.28;97.61;145764.45;1846330;78;21043;-59
2022/06/22 19:35:21;;;;;;;6.03;2.05;;;;;;;14.27;98.15;145761.91;1832119;78;21035;-58
2022/06/22 19:38:02;;;;;;;4.95;2.08;;;;;;;14.28;99.31;145764.45;1813233;79;21053;-58
2022/06/22 19:40:54;;;;;;;;;;;;;;;14.27;99.80;145761.91;1835200;78;21148;-57
2022/06/22 19:43:56;;;;;;;4.80;2.22;;;;;;;14.25;100.00;145756.91;1832286;78;20125;-58
2022/06/22 19:46:48;;;;;;;5.08;1.90;;;;;;;14.26;100.00;145759.41;1813744;78;21041;-58
2022/06/22 19:49:47;;;;;;;4.72;2.33;;;;;;;14.27;100.00;145763.20;1809164;78;21425;-60
2022/06/22 19:52:42;;;;;;;3.85;2.33;;;;;;;14.30;100.00;145770.73;1807631;79;21012;-57
2022/06/22 19:55:47;;;;;;;3.92;1.85;;;;;;;14.35;100.00;145782.06;1807013;79;21481;-56
2022/06/22 19:58:13;;;;;;;4.12;2.47;;;;;;;14.37;100.00;145787.06;1806778;79;20997;-57
2022/06/22 20:00:46;;;;;;;4.90;3.17;;;;;;;14.40;100.00;145793.34;1807290;79;21071;-57
2022/06/22 20:03:26;;;;;;;4.35;1.72;;;;;;;14.40;100.00;145793.34;1833125;78;21046;-57
2022/06/22 20:05:59;;;;;;;6.10;2.00;;;;;;;14.41;100.00;145795.89;1838697;78;21070;-57
2022/06/22 20:08:39;;;;;;;5.70;2.30;;;;;;;14.45;100.00;145805.94;1839847;78;21073;-57
2022/06/22 20:11:42;;;;;;;3.50;1.80;;;;;;;14.47;100.00;145810.97;1819832;78;21068;-58
2022/06/22 20:14:16;;;;;;;4.30;2.45;;;;;;;14.47;100.00;145812.22;1778925;78;21073;-57
2022/06/22 20:17:06;;;;;;;5.58;2.00;;;;;;;14.49;100.00;145816.02;1775448;79;21134;-58
2022/06/22 20:19:33;;;;;;;6.95;2.58;;;;;;;14.50;100.00;145818.52;1773691;81;21026;-57
2022/06/22 20:22:30;;;;;;;3.83;2.00;;;;;;;14.48;100.00;145814.77;1828880;78;21019;-57
2022/06/22 20:25:33;;;;;;;4.90;2.12;;;;;;;14.47;100.00;145812.22;1784843;80;21066;-57
2022/06/22 20:28:13;;;;;;;6.15;2.10;;;;;;;14.48;100.00;145814.77;1785066;79;21000;-57
2022/06/22 20:30:46;;;;;;;4.85;2.25;;;;;;;14.48;100.00;145814.77;1745922;80;21012;-58
2022/06/22 20:33:25;;;;;;;4.37;1.95;;;;;;;14.48;100.00;145814.77;1758528;79;21019;-57
2022/06/22 20:36:17;;;;;;;5.47;1.98;;;;;;;14.50;100.00;145818.52;1813577;79;21477;-58
2022/06/22 20:38:44;;;;;;;6.12;2.25;;;;;;;14.50;100.00;145819.81;1823244;78;21039;-57
2022/06/22 20:44:58;;;;;;;4.72;1.95;;;;;;;14.49;100.00;145817.27;1796531;78;21573;-60
2022/06/22 20:47:55;;;;;;;9.23;2.40;;;;;;;14.53;100.00;145826.14;1826097;78;21510;-59
2022/06/22 20:50:53;;;;;;;7.90;2.45;;;;;;;14.56;100.00;145832.44;1824487;77;21501;-59
2022/06/22 20:53:52;;;;;;;3.15;1.60;;;;;;;14.60;100.00;145842.47;1783579;79;21086;-57
2022/06/22 20:56:38;;;;;;;6.10;2.05;;;;;;;14.60;100.00;145842.47;1820620;78;21046;-57
2022/06/22 20:59:28;;;;;;;8.60;3.00;;;;;;;14.60;100.00;145842.47;1804687;78;21020;-58
2022/06/22 21:02:01;;;;;;;8.98;1.82;;;;;;;14.63;100.00;145850.02;1806143;79;20952;-56
2022/06/22 21:04:42;;;;;;;11.75;1.77;;;;;;;14.68;100.00;145862.59;1810646;79;21512;-57
2022/06/22 21:07:11;;;;;;;8.05;2.15;;;;;;;14.71;100.00;145870.19;1790661;79;21019;-58
2022/06/22 21:09:49;;;;;;;3.58;1.60;;;;;;;14.70;100.00;145868.88;1749496;79;21003;-57
2022/06/22 21:12:50;;;;;;;4.72;2.08;;;;;;;14.69;100.00;145865.14;1791329;79;20951;-57
2022/06/22 21:15:28;;;;;;;4.28;1.67;;;;;;;14.68;100.00;145862.59;1795215;80;21033;-58
2022/06/22 21:18:11;;;;;;;4.25;1.70;;;;;;;14.71;100.00;145870.19;1773098;81;21080;-58
2022/06/22 21:20:43;;;;;;;4.83;1.85;;;;;;;14.76;100.00;145882.77;1771287;81;21024;-58
2022/06/22 21:23:24;;;;;;;2.80;1.45;;;;;;;14.78;100.00;145887.77;1773179;81;21482;-58
2022/06/22 21:26:05;;;;;;;2.77;1.40;;;;;;;14.79;100.00;145890.31;1772714;81;21040;-57
2022/06/22 21:31:29;;;;;;;8.48;1.60;;;;;;;14.75;100.00;145880.22;1820830;79;21536;-57
2022/06/22 21:34:13;;;;;;;2.75;1.57;;;;;;;14.72;100.00;145872.69;1801509;80;21027;-57
2022/06/22 21:37:00;;;;;;;5.37;1.47;;;;;;;14.72;100.00;145873.94;1800137;80;21051;-57
2022/06/22 21:39:38;;;;;;;6.67;1.47;;;;;;;14.72;100.00;145873.94;1820704;78;21496;-57
2022/06/22 21:42:19;;;;;;;2.55;1.52;;;;;;;14.72;100.00;145872.69;1810340;79;21531;-57
2022/06/22 21:45:09;;;;;;;;;;;;;;;14.71;100.00;145870.19;1789770;80;21032;-58
2022/06/22 21:48:00;;;;;;;3.20;1.98;;;;;;;14.67;100.00;145860.09;1705668;84;20149;-58
2022/06/22 21:51:02;;;;;;;4.42;1.92;;;;;;;14.62;100.00;145848.77;1722997;83;21031;-57
2022/06/22 21:54:05;;;;;;;4.37;1.82;;;;;;;14.56;100.00;145832.44;1769824;80;21488;-58
2022/06/22 21:56:58;;;;;;;2.95;1.65;;;;;;;14.52;100.00;145824.81;1818721;78;21004;-57
2022/06/22 21:59:45;;;;;;;4.03;1.77;;;;;;;14.47;100.00;145812.22;1782944;80;21024;-57
2022/06/22 22:02:39;;;;;;;5.90;1.95;;;;;;;14.46;100.00;145808.47;1786876;80;21032;-58
2022/06/22 22:05:20;;;;;;;3.83;1.85;;;;;;;14.46;100.00;145808.47;1817145;79;20988;-57
2022/06/22 22:07:55;;;;;;;5.08;1.90;;;;;;;14.45;100.00;145807.22;1819163;77;21106;-57
2022/06/22 22:10:27;;;;;;;6.08;2.30;;;;;;;14.48;100.00;145813.52;1827475;78;20987;-56
2022/06/22 22:12:56;;;;;;;4.60;1.80;;;;;;;14.47;100.00;145812.22;1853220;77;21055;-57
2022/06/22 22:15:26;;;;;;;5.85;1.87;;;;;;;14.50;100.00;145819.81;1856456;77;21042;-56
2022/06/22 22:17:59;;;;;;;7.15;2.00;;;;;;;14.48;100.00;145814.77;1857174;77;20987;-56
2022/06/22 22:20:40;;;;;;;3.55;2.00;;;;;;;14.48;100.00;145813.52;1823423;79;21055;-58
2022/06/22 22:23:28;;;;;;;4.62;1.80;;;;;;;14.46;100.00;145809.72;1823944;78;21476;-58
2022/06/22 22:26:19;;;;;;;3.70;1.80;;;;;;;14.47;100.00;145810.97;1822527;79;20991;-57
2022/06/22 22:29:09;;;;;;;4.00;2.20;;;;;;;14.48;100.00;145814.77;1744122;77;21035;-57
2022/06/22 22:31:37;;;;;;;9.65;1.98;;;;;;;14.47;100.00;145812.22;1787972;79;21694;-58
2022/06/22 22:34:15;;;;;;;5.37;1.80;;;;;;;14.47;100.00;145812.22;1788318;80;21066;-57
2022/06/22 22:36:45;;;;;;;4.20;2.10;;;;;;;14.47;100.00;145812.22;1801804;79;21501;-57
2022/06/22 22:39:17;;;;;;;4.30;2.00;;;;;;;14.46;100.00;145809.72;1806496;77;21000;-57
2022/06/22 22:41:50;;;;;;;3.72;2.00;;;;;;;14.46;100.00;145809.72;1823888;79;21147;-56
2022/06/22 22:44:25;;;;;;;4.28;2.22;;;;;;;14.45;100.00;145807.22;1823493;78;21513;-56
2022/06/22 22:46:55;;;;;;;4.37;1.80;;;;;;;14.46;100.00;145808.47;1823859;79;21009;-56
2022/06/22 22:49:35;;;;;;;5.97;1.75;;;;;;;14.42;100.00;145799.64;1824140;78;21033;-57
2022/06/22 22:52:20;;;;;;;2.37;1.47;;;;;;;14.40;100.00;145794.66;1791637;80;21025;-56
2022/06/22 22:55:12;;;;;;;4.78;1.70;;;;;;;14.36;100.00;145784.56;1791899;79;21072;-57
2022/06/22 22:58:08;;;;;;;4.33;2.98;;;;;;;14.35;100.00;145782.06;1794603;80;21580;-57
2022/06/22 23:00:44;;;;;;;4.97;2.08;;;;;;;14.37;100.00;145787.06;1801594;78;21088;-56
2022/06/22 23:03:24;;;;;;;3.90;1.80;;;;;;;14.37;100.00;145785.81;1810559;78;21521;-57
2022/06/22 23:05:56;;;;;;;5.28;2.35;;;;;;;14.38;100.00;145789.61;1827825;78;20981;-56
2022/06/22 23:08:31;;;;;;;3.30;1.67;;;;;;;14.37;100.00;145787.06;1789002;80;21023;-56
2022/06/22 23:11:06;;;;;;;4.10;2.08;;;;;;;14.33;100.00;145778.28;1789068;80;21028;-57
2022/06/22 23:13:36;;;;;;;4.45;2.08;;;;;;;14.32;100.00;145774.48;1789111;80;21032;-56
2022/06/22 23:16:21;;;;;;;5.50;2.12;;;;;;;14.30;100.00;145770.73;1789569;80;20998;-57
2022/06/22 23:18:53;;;;;;;3.83;2.17;;;;;;;14.28;100.00;145764.45;1801043;79;20996;-57
2022/06/22 23:21:37;;;;;;;4.33;2.33;;;;;;;14.28;100.00;145764.45;1795186;79;21078;-56
2022/06/22 23:24:12;;;;;;;4.22;1.80;;;;;;;14.23;100.00;145751.88;1793732;79;21050;-57
2022/06/22 23:26:50;;;;;;;5.60;2.02;;;;;;;14.20;100.00;145745.58;1775776;80;21027;-58
2022/06/22 23:29:19;;;;;;;7.25;2.00;;;;;;;14.19;100.00;145743.03;1803800;78;21023;-57
2022/06/22 23:31:54;;;;;;;6.28;2.70;;;;;;;14.17;100.00;145738.05;1811664;79;21535;-56
2022/06/22 23:34:35;;;;;;;4.92;1.95;;;;;;;14.13;100.00;145727.97;1811252;79;21130;-56
2022/06/22 23:37:25;;;;;;;6.35;2.08;;;;;;;14.15;100.00;145731.75;1811759;79;21059;-56
2022/06/22 23:39:52;;;;;;;5.45;2.40;;;;;;;14.18;100.00;145739.30;1811848;79;21603;-56
2022/06/22 23:42:21;;;;;;;3.72;2.17;;;;;;;14.16;100.00;145735.50;1811781;79;21032;-57
2022/06/22 23:44:49;;;;;;;5.22;1.87;;;;;;;14.14;100.00;145729.22;1811809;79;21039;-56
2022/06/22 23:50:08;;;;;;;5.15;2.22;;;;;;;14.11;100.00;145724.17;1811465;79;21504;-57
2022/06/22 23:52:43;;;;;;;5.03;2.35;;;;;;;14.05;100.00;145707.84;1827837;78;21214;-58
2022/06/22 23:55:18;;;;;;;6.53;2.47;;;;;;;14.02;100.00;145701.56;1827882;78;21572;-58
2022/06/22 23:57:46;;;;;;;5.92;2.72;;;;;;;14.03;100.00;145704.06;1824518;78;21042;-56
